Time;durP1;ratioP1;P1;durP2;ratioP2;P2;SDS_P1;SDS_P2;PMS_P1;PMS_P2;Temp;Humidity;BMP_temperature;BMP_pressure;BME280_temperature;BME280_humidity;BME280_pressure;Samples;Min_cycle;Max_cycle;Signal;HPM_P1;HPM_P2
2022/11/23 00:00:24;;;;;;;27.98;14.95;;;;;;;8.91;100.00;99522.00;5011402;28;20022;-65
2022/11/23 00:02:56;;;;;;;40.95;16.67;;;;;;;8.85;100.00;99518.72;5010769;28;20500;-66
2022/11/23 00:05:21;;;;;;;30.50;15.40;;;;;;;8.87;100.00;99515.19;5010719;28;20549;-64
2022/11/23 00:07:47;;;;;;;33.97;15.60;;;;;;;8.88;100.00;99511.66;5010529;28;20113;-63
2022/11/23 00:10:12;;;;;;;23.63;14.93;;;;;;;8.90;100.00;99525.53;5011188;28;20026;-63
2022/11/23 00:12:38;;;;;;;31.17;15.23;;;;;;;8.92;100.00;99529.81;5008741;28;20041;-64
2022/11/23 00:15:04;;;;;;;28.70;14.63;;;;;;;8.90;100.00;99530.78;5010560;28;20530;-66
2022/11/23 00:17:30;;;;;;;24.08;14.50;;;;;;;8.92;100.00;99539.47;5009642;28;20469;-64
2022/11/23 00:19:55;;;;;;;28.45;14.05;;;;;;;8.96;100.00;99546.25;5010353;28;20018;-65
2022/11/23 00:22:20;;;;;;;30.52;15.13;;;;;;;8.93;100.00;99542.03;5010856;28;20048;-61
2022/11/23 00:24:46;;;;;;;27.25;15.20;;;;;;;8.98;100.00;99541.81;4993673;28;20026;-65
2022/11/23 00:27:11;;;;;;;27.80;14.48;;;;;;;9.02;100.00;99543.34;5016708;28;20022;-65
2022/11/23 00:29:37;;;;;;;29.60;13.90;;;;;;;9.04;100.00;99543.28;5029942;28;20115;-58
2022/11/23 00:32:02;;;;;;;23.35;12.75;;;;;;;9.08;100.00;99548.31;5029525;28;20025;-66
2022/11/23 00:34:27;;;;;;;27.13;13.05;;;;;;;9.05;100.00;99551.09;5030694;28;20029;-66
2022/11/23 00:36:53;;;;;;;27.02;13.93;;;;;;;9.14;100.00;99557.66;5029836;28;20021;-64
2022/11/23 00:39:18;;;;;;;31.95;14.23;;;;;;;9.04;100.00;99557.28;5029526;28;20354;-59
2022/11/23 00:41:43;;;;;;;27.30;14.40;;;;;;;9.15;100.00;99555.91;5029520;28;20471;-65
2022/11/23 00:44:09;;;;;;;26.50;13.18;;;;;;;9.14;100.00;99559.44;5029375;28;20049;-63
2022/11/23 00:46:35;;;;;;;24.67;13.93;;;;;;;9.17;100.00;99556.66;5029954;28;20087;-66
2022/11/23 00:49:00;;;;;;;28.25;14.52;;;;;;;9.15;100.00;99551.47;5011822;28;20030;-64
2022/11/23 00:51:31;;;;;;;30.15;15.45;;;;;;;9.18;100.00;99558.38;5020845;28;20025;-66
2022/11/23 00:53:57;;;;;;;32.42;14.93;;;;;;;9.26;100.00;99556.22;5008456;28;20022;-66
2022/11/23 00:56:22;;;;;;;29.48;15.30;;;;;;;9.24;100.00;99560.69;5008777;28;20033;-65
2022/11/23 00:58:49;;;;;;;24.23;14.10;;;;;;;9.28;100.00;99551.75;4991722;28;20026;-59
2022/11/23 01:01:15;;;;;;;27.40;14.55;;;;;;;9.21;100.00;99560.84;5010213;28;20026;-66
2022/11/23 01:03:43;;;;;;;27.83;14.85;;;;;;;9.20;100.00;99554.75;5009196;28;20370;-65
2022/11/23 01:06:11;;;;;;;33.03;14.38;;;;;;;9.21;100.00;99563.47;4992074;28;20461;-65
2022/11/23 01:08:36;;;;;;;33.38;15.20;;;;;;;9.17;100.00;99564.53;5009721;28;20378;-64
2022/11/23 01:11:04;;;;;;;26.02;14.50;;;;;;;9.23;100.00;99565.13;5008971;28;20060;-67
2022/11/23 01:13:30;;;;;;;23.90;13.18;;;;;;;9.27;100.00;99565.78;4992149;28;20061;-59
2022/11/23 01:15:55;;;;;;;28.85;13.60;;;;;;;9.29;100.00;99561.31;5009720;28;20030;-66
2022/11/23 01:18:21;;;;;;;22.05;12.35;;;;;;;9.30;100.00;99564.81;5009321;28;20030;-64
2022/11/23 01:20:46;;;;;;;28.38;13.02;;;;;;;9.28;100.00;99567.53;5008016;28;20507;-60
2022/11/23 01:23:12;;;;;;;22.15;11.68;;;;;;;9.24;100.00;99576.47;4991215;28;20022;-65
2022/11/23 01:25:37;;;;;;;28.45;13.20;;;;;;;9.22;100.00;99573.06;5008164;28;20030;-65
2022/11/23 01:28:03;;;;;;;24.52;12.57;;;;;;;9.27;100.00;99572.84;5009517;28;20073;-58
2022/11/23 01:30:28;;;;;;;25.98;12.32;;;;;;;9.23;100.00;99569.50;5009521;28;20100;-65
2022/11/23 01:32:53;;;;;;;25.10;13.50;;;;;;;9.21;100.00;99574.84;5009574;28;20157;-65
2022/11/23 01:35:19;;;;;;;26.38;12.68;;;;;;;9.18;100.00;99569.72;5009403;28;20116;-66
2022/11/23 01:37:44;;;;;;;27.58;13.30;;;;;;;9.17;100.00;99572.44;5009531;28;20196;-66
2022/11/23 01:40:10;;;;;;;25.38;13.02;;;;;;;9.25;100.00;99583.44;5008562;28;20034;-59
2022/11/23 01:42:46;;;;;;;25.50;12.52;;;;;;;9.25;100.00;99579.94;5009519;28;20037;-65
2022/11/23 01:45:40;;;;;;;21.42;10.80;;;;;;;9.22;100.00;99573.91;4991561;28;20479;-64
2022/11/23 01:48:12;;;;;;;28.15;11.40;;;;;;;9.23;100.00;99574.75;5008662;28;20061;-66
2022/11/23 01:50:37;;;;;;;26.08;10.23;;;;;;;9.21;100.00;99576.59;4991665;28;20523;-64
2022/11/23 01:53:03;;;;;;;24.33;10.70;;;;;;;9.25;100.00;99580.81;5007916;28;20117;-67
2022/11/23 01:55:28;;;;;;;34.88;11.30;;;;;;;9.18;100.00;99580.25;4990146;28;20029;-66
2022/11/23 01:57:54;;;;;;;24.17;9.73;;;;;;;9.22;100.00;99576.53;5008261;28;20117;-62
2022/11/23 02:00:19;;;;;;;25.38;9.52;;;;;;;9.08;100.00;99581.63;5008492;28;20033;-66
2022/11/23 02:02:50;;;;;;;20.08;8.63;;;;;;;9.15;100.00;99583.00;5008448;28;20392;-65
2022/11/23 02:05:17;;;;;;;21.65;8.32;;;;;;;9.14;100.00;99586.56;5062990;22;20060;-67
2022/11/23 02:07:42;;;;;;;21.58;8.18;;;;;;;9.08;100.00;99586.88;4992416;28;20125;-60
2022/11/23 02:10:08;;;;;;;21.17;8.45;;;;;;;9.14;100.00;99583.09;4987877;28;20110;-65
2022/11/23 02:12:34;;;;;;;24.98;8.90;;;;;;;9.09;100.00;99584.16;4988572;28;20031;-63
2022/11/23 02:14:59;;;;;;;23.73;8.98;;;;;;;9.05;100.00;99590.50;4988722;28;20050;-66
2022/11/23 02:17:24;;;;;;;22.85;8.05;;;;;;;9.09;100.00;99589.41;4988841;28;20400;-66
2022/11/23 02:20:02;;;;;;;16.10;8.10;;;;;;;9.10;100.00;99592.91;4989211;28;20353;-63
2022/11/23 02:22:38;;;;;;;22.90;7.75;;;;;;;9.13;100.00;99594.53;4989030;28;20019;-65
2022/11/23 02:25:11;;;;;;;15.38;7.60;;;;;;;9.09;100.00;99592.06;4986543;28;20380;-66
2022/11/23 02:27:36;;;;;;;25.05;7.65;;;;;;;9.13;100.00;99595.41;4987855;28;20644;-64
2022/11/23 02:30:02;;;;;;;17.55;8.10;;;;;;;9.12;100.00;99604.19;4985994;28;20027;-65
2022/11/23 02:32:28;;;;;;;20.27;8.57;;;;;;;9.06;100.00;99597.44;4985098;28;20108;-65
2022/11/23 02:34:53;;;;;;;23.92;8.85;;;;;;;8.97;100.00;99600.50;4986007;28;20540;-61
2022/11/23 02:37:18;;;;;;;21.75;8.93;;;;;;;9.02;100.00;99593.28;4988549;28;20031;-65
2022/11/23 02:39:47;;;;;;;24.00;9.13;;;;;;;9.02;100.00;99592.41;5005754;28;20025;-67
2022/11/23 02:42:12;;;;;;;17.52;8.50;;;;;;;9.01;100.00;99591.56;5006800;28;20076;-65
2022/11/23 02:44:43;;;;;;;18.27;8.55;;;;;;;9.04;100.00;99590.56;5007533;28;20026;-65
2022/11/23 02:47:09;;;;;;;17.50;7.75;;;;;;;9.08;100.00;99589.50;5007747;28;20026;-62
2022/11/23 02:49:35;;;;;;;17.55;8.25;;;;;;;9.01;100.00;99595.97;5008708;28;20539;-65
2022/11/23 02:52:01;;;;;;;19.48;8.48;;;;;;;9.03;100.00;99592.34;5008235;28;20526;-69
2022/11/23 02:54:26;;;;;;;17.42;8.45;;;;;;;9.10;100.00;99592.91;5008313;28;20118;-65
2022/11/23 02:56:52;;;;;;;17.88;9.60;;;;;;;9.08;100.00;99594.75;4996512;28;20041;-66
2022/11/23 02:59:17;;;;;;;19.77;9.50;;;;;;;9.00;100.00;99599.53;4988123;28;20033;-55
2022/11/23 03:01:43;;;;;;;14.20;9.25;;;;;;;9.07;100.00;99590.44;4988005;28;20076;-63
2022/11/23 03:04:09;;;;;;;16.83;9.23;;;;;;;9.07;100.00;99593.06;4988481;28;20095;-64
2022/11/23 03:06:34;;;;;;;17.27;9.65;;;;;;;9.10;100.00;99599.00;4988047;28;20061;-61
2022/11/23 03:09:00;;;;;;;17.30;9.68;;;;;;;9.08;100.00;99600.88;4988016;28;20023;-65
2022/11/23 03:11:25;;;;;;;15.25;10.40;;;;;;;9.01;100.00;99596.84;4987906;28;20465;-63
2022/11/23 03:13:50;;;;;;;16.88;10.35;;;;;;;9.08;100.00;99595.63;4988750;28;20026;-66
2022/11/23 03:16:16;;;;;;;17.10;10.82;;;;;;;9.17;100.00;99601.34;4989698;28;20030;-58
2022/11/23 03:18:41;;;;;;;16.15;10.02;;;;;;;9.16;100.00;99591.75;4992027;28;20045;-64
2022/11/23 03:21:10;;;;;;;16.25;10.98;;;;;;;9.09;100.00;99599.94;4992409;28;20046;-65
2022/11/23 03:23:36;;;;;;;23.13;11.10;;;;;;;9.10;100.00;99600.78;4991835;28;20018;-66
2022/11/23 03:26:02;;;;;;;15.73;11.18;;;;;;;9.06;100.00;99601.88;4991581;28;20081;-66
2022/11/23 03:28:28;;;;;;;21.58;11.52;;;;;;;9.10;100.00;99604.25;4992629;28;20033;-66
2022/11/23 03:30:53;;;;;;;15.73;11.00;;;;;;;9.15;100.00;99604.03;4992152;28;20018;-63
2022/11/23 03:33:19;;;;;;;16.92;10.43;;;;;;;9.18;100.00;99609.16;4992809;28;20023;-67
2022/11/23 03:35:44;;;;;;;14.57;10.48;;;;;;;9.16;100.00;99610.16;4992272;28;20032;-66
2022/11/23 03:38:10;;;;;;;20.25;9.80;;;;;;;9.22;100.00;99609.88;4992226;28;20018;-62
2022/11/23 03:40:35;;;;;;;16.25;9.90;;;;;;;9.28;100.00;99606.94;4991945;28;20077;-65
2022/11/23 03:43:00;;;;;;;15.65;9.73;;;;;;;9.18;100.00;99610.94;4992354;28;20369;-66
2022/11/23 03:45:26;;;;;;;14.27;9.07;;;;;;;9.22;100.00;99599.34;4991122;28;20452;-65
2022/11/23 03:47:51;;;;;;;11.25;8.52;;;;;;;9.30;100.00;99612.97;5012049;28;20435;-63
2022/11/23 03:50:16;;;;;;;21.60;9.32;;;;;;;9.30;100.00;99605.06;5012256;28;20583;-65
2022/11/23 03:52:42;;;;;;;14.45;9.02;;;;;;;9.29;100.00;99608.66;5012146;28;20384;-65
2022/11/23 03:55:07;;;;;;;14.68;8.80;;;;;;;9.21;100.00;99613.41;5002253;28;20385;-65
2022/11/23 03:57:32;;;;;;;13.32;8.32;;;;;;;9.35;100.00;99615.38;4992500;28;20093;-65
2022/11/23 03:59:58;;;;;;;16.30;8.75;;;;;;;9.34;100.00;99614.50;4992010;28;20101;-67
2022/11/23 04:02:23;;;;;;;13.82;8.18;;;;;;;9.29;100.00;99611.28;4993075;28;20427;-65
2022/11/23 04:04:49;;;;;;;13.60;7.78;;;;;;;9.33;100.00;99612.81;4992091;28;20043;-65
2022/11/23 04:07:14;;;;;;;12.90;7.32;;;;;;;9.33;100.00;99612.81;4991618;28;20054;-63
2022/11/23 04:09:39;;;;;;;14.00;6.78;;;;;;;9.25;100.00;99614.13;4991774;28;20500;-67
2022/11/23 04:12:05;;;;;;;16.58;6.28;;;;;;;9.31;100.00;99614.69;4991066;28;20109;-66
2022/11/23 04:14:30;;;;;;;15.07;6.40;;;;;;;9.32;100.00;99613.75;4991947;28;20058;-63
2022/11/23 04:16:56;;;;;;;12.43;6.10;;;;;;;9.30;100.00;99615.59;4991703;28;20030;-65
2022/11/23 04:19:21;;;;;;;16.80;6.10;;;;;;;9.34;100.00;99616.31;4991830;28;20027;-65
2022/11/23 04:21:46;;;;;;;16.70;6.05;;;;;;;9.40;100.00;99615.16;4992178;28;20030;-65
2022/11/23 04:24:12;;;;;;;14.60;5.63;;;;;;;9.35;100.00;99613.59;4991670;28;20022;-63
2022/11/23 04:26:39;;;;;;;10.05;6.45;;;;;;;9.41;100.00;99608.97;4991391;28;20105;-64
2022/11/23 04:29:04;;;;;;;16.83;6.80;;;;;;;9.38;100.00;99617.00;4990086;28;20034;-61
2022/11/23 04:31:29;;;;;;;11.52;6.80;;;;;;;9.33;100.00;99618.06;4991936;28;20080;-65
2022/11/23 04:33:56;;;;;;;13.98;7.53;;;;;;;9.32;100.00;99621.63;4992301;28;20022;-65
2022/11/23 04:36:21;;;;;;;14.73;7.15;;;;;;;9.38;100.00;99617.84;4992550;28;20030;-64
2022/11/23 04:38:46;;;;;;;11.43;7.97;;;;;;;9.42;100.00;99619.41;4992479;28;20026;-68
2022/11/23 04:41:12;;;;;;;17.60;7.60;;;;;;;9.44;100.00;99617.56;4991646;28;20396;-67
2022/11/23 04:43:37;;;;;;;14.32;7.93;;;;;;;9.50;100.00;99618.19;4991564;28;20429;-67
2022/11/23 04:46:03;;;;;;;13.00;8.32;;;;;;;9.50;100.00;99623.44;4991659;28;20030;-67
2022/11/23 04:48:28;;;;;;;16.08;7.57;;;;;;;9.35;100.00;99618.88;4991768;28;20025;-65
2022/11/23 04:50:53;;;;;;;13.80;6.63;;;;;;;9.42;100.00;99621.19;4991410;28;20022;-67
2022/11/23 04:53:19;;;;;;;14.00;6.28;;;;;;;9.42;100.00;99615.94;4991488;28;20026;-67
2022/11/23 04:55:46;;;;;;;17.00;7.32;;;;;;;9.50;100.00;99619.03;4990568;28;20022;-67
2022/11/23 04:58:11;;;;;;;15.00;5.35;;;;;;;9.49;100.00;99617.34;4990813;28;20038;-66
2022/11/23 05:00:36;;;;;;;17.13;6.53;;;;;;;9.47;100.00;99608.66;4972707;28;20030;-68
2022/11/23 05:03:02;;;;;;;10.30;5.03;;;;;;;9.45;100.00;99610.53;4990964;28;20080;-66
2022/11/23 05:05:27;;;;;;;11.48;4.88;;;;;;;9.48;100.00;99620.88;4990825;28;20056;-66
2022/11/23 05:07:52;;;;;;;13.82;5.32;;;;;;;9.51;100.00;99625.16;4989954;28;20133;-66
2022/11/23 05:10:17;;;;;;;9.77;5.13;;;;;;;9.46;100.00;99620.13;4989038;28;20023;-64
2022/11/23 05:12:43;;;;;;;12.15;6.00;;;;;;;9.41;100.00;99622.97;4991768;28;20022;-67
2022/11/23 05:15:12;;;;;;;16.15;5.40;;;;;;;9.41;100.00;99627.38;4986275;28;20030;-67
2022/11/23 05:17:37;;;;;;;12.10;4.88;;;;;;;9.49;100.00;99625.22;4993420;28;20137;-66
2022/11/23 05:20:03;;;;;;;12.88;5.30;;;;;;;9.39;100.00;99637.13;4990433;28;20105;-67
2022/11/23 05:22:28;;;;;;;13.45;5.82;;;;;;;9.41;100.00;99630.84;4999108;28;20046;-66
2022/11/23 05:24:54;;;;;;;12.05;6.15;;;;;;;9.39;100.00;99634.50;4988663;28;20105;-67
2022/11/23 05:27:19;;;;;;;13.02;6.03;;;;;;;9.42;100.00;99631.72;5000653;28;20021;-66
2022/11/23 05:29:44;;;;;;;16.77;6.65;;;;;;;9.33;100.00;99625.13;5000274;28;20041;-63
2022/11/23 05:32:10;;;;;;;14.90;6.70;;;;;;;9.37;100.00;99639.81;5001541;28;20046;-63
2022/11/23 05:34:35;;;;;;;22.05;7.47;;;;;;;9.33;100.00;99633.84;5001794;28;20030;-66
2022/11/23 05:37:00;;;;;;;17.15;7.65;;;;;;;9.28;100.00;99629.75;5008046;28;20065;-66
2022/11/23 05:39:26;;;;;;;17.73;7.70;;;;;;;9.25;100.00;99624.63;5001872;28;20038;-63
2022/11/23 05:41:51;;;;;;;21.15;9.60;;;;;;;9.27;100.00;99634.13;4991647;28;20027;-66
2022/11/23 05:44:16;;;;;;;19.25;8.68;;;;;;;9.26;100.00;99631.59;4995278;28;20116;-66
2022/11/23 05:46:42;;;;;;;17.80;8.02;;;;;;;9.21;100.00;99629.16;4994992;28;20109;-66
2022/11/23 05:49:08;;;;;;;15.32;7.85;;;;;;;9.23;100.00;99627.34;4995654;28;20029;-64
2022/11/23 05:51:34;;;;;;;15.70;7.97;;;;;;;9.17;100.00;99627.63;5008784;28;20108;-69
2022/11/23 05:54:00;;;;;;;17.05;8.93;;;;;;;9.16;100.00;99628.56;5009589;28;20433;-66
2022/11/23 05:56:25;;;;;;;24.13;8.68;;;;;;;9.13;100.00;99628.69;5004892;28;20042;-67
2022/11/23 05:58:53;;;;;;;24.10;8.65;;;;;;;9.15;100.00;99627.69;4971404;28;20034;-67
2022/11/23 06:01:18;;;;;;;20.83;8.50;;;;;;;9.17;100.00;99630.25;4979350;28;20053;-67
2022/11/23 06:03:44;;;;;;;22.83;7.57;;;;;;;9.03;100.00;99626.50;4988619;28;20109;-68
2022/11/23 06:06:09;;;;;;;16.30;6.90;;;;;;;9.02;100.00;99618.69;4989020;28;20452;-59
2022/11/23 06:08:35;;;;;;;16.73;6.35;;;;;;;9.03;100.00;99623.88;4990497;28;20489;-67
2022/11/23 06:11:01;;;;;;;17.58;6.03;;;;;;;9.06;100.00;99615.84;4988528;28;20041;-68
2022/11/23 06:13:26;;;;;;;16.48;5.50;;;;;;;9.09;100.00;99620.09;4989829;28;20077;-68
2022/11/23 06:15:52;;;;;;;17.10;5.93;;;;;;;9.07;100.00;99621.97;4989895;28;20389;-68
2022/11/23 06:18:17;;;;;;;16.65;5.20;;;;;;;8.91;100.00;99621.84;4989918;28;20037;-59
2022/11/23 06:20:42;;;;;;;20.60;5.30;;;;;;;8.76;100.00;99623.41;4989462;28;20477;-65
2022/11/23 06:23:08;;;;;;;11.98;4.70;;;;;;;8.72;100.00;99620.03;4989645;28;20038;-69
2022/11/23 06:25:33;;;;;;;19.27;4.60;;;;;;;8.51;100.00;99612.19;4989438;28;20092;-67
2022/11/23 06:27:59;;;;;;;15.70;5.78;;;;;;;8.36;100.00;99632.09;5003838;28;20081;-66
2022/11/23 06:30:27;;;;;;;13.25;3.90;;;;;;;8.25;100.00;99623.84;5010179;28;20109;-62
2022/11/23 06:32:52;;;;;;;16.50;3.40;;;;;;;8.04;100.00;99621.25;5008649;28;20022;-66
2022/11/23 06:35:18;;;;;;;19.50;3.72;;;;;;;7.94;100.00;99619.00;5010237;28;20033;-58
2022/11/23 06:37:44;;;;;;;19.25;3.88;;;;;;;7.90;100.00;99620.06;5009583;28;20036;-66
2022/11/23 06:40:10;;;;;;;17.33;3.35;;;;;;;7.91;100.00;99620.91;5009596;28;20029;-63
2022/11/23 06:42:35;;;;;;;14.15;3.67;;;;;;;7.84;100.00;99618.56;5009637;28;20032;-69
2022/11/23 06:45:01;;;;;;;16.63;3.00;;;;;;;7.79;100.00;99623.13;5008263;28;20437;-61
2022/11/23 06:47:29;;;;;;;16.52;3.10;;;;;;;7.74;100.00;99619.00;5008225;28;20464;-64
2022/11/23 06:49:54;;;;;;;17.67;3.73;;;;;;;7.71;100.00;99617.38;5007961;28;20026;-66
2022/11/23 06:52:20;;;;;;;18.30;3.85;;;;;;;7.63;100.00;99616.81;5011007;28;20018;-69
2022/11/23 06:54:45;;;;;;;15.68;3.55;;;;;;;7.56;100.00;99616.22;5011519;28;20029;-67
2022/11/23 06:57:10;;;;;;;14.55;2.95;;;;;;;7.53;100.00;99635.53;4997680;28;20031;-64
2022/11/23 06:59:36;;;;;;;22.15;5.53;;;;;;;7.54;100.00;99639.88;4992762;28;20042;-67
2022/11/23 07:02:01;;;;;;;14.05;3.63;;;;;;;7.53;100.00;99638.16;4991771;28;20181;-67
2022/11/23 07:04:26;;;;;;;21.80;4.35;;;;;;;7.49;100.00;99639.22;4991816;28;20069;-66
2022/11/23 07:06:52;;;;;;;19.85;3.85;;;;;;;7.63;100.00;99645.66;4991798;28;20046;-66
2022/11/23 07:09:17;;;;;;;25.70;4.10;;;;;;;7.67;100.00;99652.47;4990883;28;20018;-61
2022/11/23 07:11:43;;;;;;;13.70;3.17;;;;;;;7.75;100.00;99653.03;4992381;28;20027;-66
2022/11/23 07:14:08;;;;;;;22.67;4.43;;;;;;;7.86;100.00;99654.34;4991939;28;20026;-67
2022/11/23 07:16:33;;;;;;;12.57;3.40;;;;;;;7.84;100.00;99660.53;4991764;28;20362;-61
2022/11/23 07:18:59;;;;;;;17.83;3.22;;;;;;;7.95;100.00;99659.22;4991526;28;20076;-67
2022/11/23 07:21:24;;;;;;;15.45;2.92;;;;;;;8.01;100.00;99668.59;4990900;28;20392;-63
2022/11/23 07:23:49;;;;;;;19.73;3.53;;;;;;;8.11;100.00;99664.66;4990566;28;21022;-66
2022/11/23 07:26:15;;;;;;;15.48;2.70;;;;;;;8.13;100.00;99669.84;4989909;28;20172;-64
2022/11/23 07:28:40;;;;;;;15.55;3.05;;;;;;;8.12;100.00;99678.66;4989563;28;20110;-64
2022/11/23 07:31:06;;;;;;;13.07;3.58;;;;;;;8.23;100.00;99673.78;4990067;28;20026;-67
2022/11/23 07:33:31;;;;;;;15.80;3.20;;;;;;;8.28;100.00;99668.34;4990496;28;20029;-60
2022/11/23 07:36:00;;;;;;;21.00;3.13;;;;;;;8.33;100.00;99669.84;4990366;28;20023;-63
2022/11/23 07:38:26;;;;;;;;;;;;;;;8.34;100.00;99675.94;4990599;28;20031;-64
2022/11/23 07:40:51;;;;;;;20.45;2.80;;;;;;;8.39;100.00;99676.59;4990212;28;19921;-66
2022/11/23 07:43:16;;;;;;;17.70;3.40;;;;;;;8.36;100.00;99681.13;4991400;28;20037;-66
2022/11/23 07:45:42;;;;;;;20.58;3.42;;;;;;;8.40;100.00;99680.09;4991022;28;20031;-65
2022/11/23 07:48:08;;;;;;;17.83;2.75;;;;;;;8.31;100.00;99682.16;4990937;28;20117;-67
2022/11/23 07:50:35;;;;;;;18.90;3.25;;;;;;;8.39;100.00;99688.84;4991122;28;20369;-66
2022/11/23 07:53:01;;;;;;;19.77;3.03;;;;;;;8.53;100.00;99689.13;5005936;28;20029;-67
2022/11/23 07:55:27;;;;;;;18.92;3.08;;;;;;;8.56;100.00;99701.28;4987644;28;20165;-64
2022/11/23 07:57:53;;;;;;;19.63;3.33;;;;;;;8.72;100.00;99701.47;4989872;28;20117;-67
2022/11/23 08:00:22;;;;;;;12.43;2.80;;;;;;;8.82;100.00;99709.81;4990605;28;20085;-65
2022/11/23 08:02:48;;;;;;;18.98;2.80;;;;;;;8.88;100.00;99693.72;4988403;28;20030;-62
2022/11/23 08:05:14;;;;;;;22.20;3.83;;;;;;;8.89;100.00;99707.72;4989814;28;20108;-66
2022/11/23 08:07:39;;;;;;;16.20;3.33;;;;;;;8.96;100.00;99699.50;4989585;28;20035;-65
2022/11/23 08:10:05;;;;;;;18.55;3.75;;;;;;;9.09;100.00;99699.78;4989356;28;20034;-66
2022/11/23 08:12:30;;;;;;;17.42;2.80;;;;;;;9.18;100.00;99695.06;4990192;28;20029;-66
2022/11/23 08:14:55;;;;;;;19.23;3.20;;;;;;;9.04;100.00;99703.56;4989768;28;20370;-68
2022/11/23 08:17:21;;;;;;;14.93;3.28;;;;;;;9.18;100.00;99705.56;4989117;28;20122;-67
2022/11/23 08:19:47;;;;;;;18.42;3.03;;;;;;;9.15;100.00;99709.16;4989744;28;20117;-64
2022/11/23 08:22:12;;;;;;;22.13;3.83;;;;;;;9.12;100.00;99704.03;4988781;28;20030;-65
2022/11/23 08:24:37;;;;;;;18.13;3.50;;;;;;;9.14;100.00;99698.72;4988123;28;20097;-66
2022/11/23 08:27:03;;;;;;;18.85;3.28;;;;;;;9.14;100.00;99706.59;4989163;28;20026;-67
2022/11/23 08:29:29;;;;;;;18.85;3.97;;;;;;;9.18;100.00;99702.94;4989341;28;20028;-65
2022/11/23 08:31:54;;;;;;;17.00;3.15;;;;;;;9.19;100.00;99709.88;4988988;28;20110;-56
2022/11/23 08:34:19;;;;;;;26.85;4.05;;;;;;;9.22;100.00;99704.50;4989463;28;20018;-68
2022/11/23 08:36:46;;;;;;;10.98;3.08;;;;;;;9.29;100.00;99710.31;4988448;28;20044;-64
2022/11/23 08:39:13;;;;;;;15.68;3.40;;;;;;;9.31;100.00;99705.84;4987979;28;20046;-63
2022/11/23 08:41:39;;;;;;;22.67;3.08;;;;;;;9.32;100.00;99711.03;4989673;28;20242;-68
2022/11/23 08:44:04;;;;;;;19.08;3.35;;;;;;;9.32;100.00;99711.03;4989042;28;20447;-66
2022/11/23 08:46:29;;;;;;;17.60;3.78;;;;;;;9.35;100.00;99708.25;4988936;28;20031;-66
2022/11/23 08:48:55;;;;;;;15.90;2.83;;;;;;;9.38;100.00;99709.00;4989332;28;20022;-66
2022/11/23 08:51:21;;;;;;;18.65;3.40;;;;;;;9.40;100.00;99704.53;4987776;28;20037;-67
2022/11/23 08:53:48;;;;;;;19.92;3.78;;;;;;;9.48;100.00;99707.66;4988784;28;20026;-61
2022/11/23 08:56:13;;;;;;;16.67;3.53;;;;;;;9.68;100.00;99696.19;4988615;28;20491;-64
2022/11/23 08:58:39;;;;;;;17.35;3.42;;;;;;;9.71;100.00;99689.91;4988622;28;20026;-67
2022/11/23 09:01:14;;;;;;;18.10;3.00;;;;;;;9.83;100.00;99684.06;4995920;28;20113;-65
2022/11/23 09:03:40;;;;;;;17.05;3.60;;;;;;;9.78;100.00;99688.69;5008893;28;20388;-65
2022/11/23 09:06:06;;;;;;;18.30;3.45;;;;;;;9.81;100.00;99685.91;5006778;28;20038;-66
2022/11/23 09:08:32;;;;;;;19.77;3.05;;;;;;;9.74;100.00;99679.25;4996136;28;20037;-62
2022/11/23 09:11:01;;;;;;;15.18;2.97;;;;;;;9.63;100.00;99676.31;4989511;28;20033;-66
2022/11/23 09:13:27;;;;;;;;;;;;;;;9.59;100.00;99671.19;4990441;28;20030;-63
2022/11/23 09:15:56;;;;;;;20.55;3.47;;;;;;;9.54;100.00;99662.66;4989994;28;20021;-67
2022/11/23 09:18:21;;;;;;;19.08;2.85;;;;;;;9.44;100.00;99658.78;4989849;28;20141;-60
2022/11/23 09:20:47;;;;;;;19.83;2.75;;;;;;;9.37;100.00;99649.47;4989299;28;20117;-67
2022/11/23 09:23:12;;;;;;;10.65;2.50;;;;;;;9.36;100.00;99640.72;4987842;28;20061;-65
2022/11/23 09:25:37;;;;;;;24.23;4.35;;;;;;;9.35;100.00;99625.88;4988544;28;20022;-63
2022/11/23 09:28:03;;;;;;;14.98;3.20;;;;;;;9.34;100.00;99635.53;4989048;28;20031;-65
2022/11/23 09:30:28;;;;;;;13.60;2.67;;;;;;;9.37;100.00;99623.19;4989194;28;20488;-64
2022/11/23 09:32:55;;;;;;;22.27;3.33;;;;;;;9.29;100.00;99620.94;4988818;28;20501;-62
2022/11/23 09:35:21;;;;;;;14.45;3.15;;;;;;;9.18;100.00;99610.94;4988693;28;20034;-64
2022/11/23 09:37:46;;;;;;;14.75;2.90;;;;;;;9.10;100.00;99609.50;4987728;28;20032;-64
2022/11/23 09:40:16;;;;;;;20.15;2.90;;;;;;;9.13;100.00;99616.41;4986938;28;20874;-67
2022/11/23 09:43:05;;;;;;;12.60;2.38;;;;;;;9.26;100.00;99619.31;4987502;28;20030;-65
2022/11/23 09:45:46;;;;;;;16.77;3.28;;;;;;;9.03;100.00;99618.63;4986227;28;20076;-67
2022/11/23 09:48:24;;;;;;;21.08;3.13;;;;;;;9.12;100.00;99617.31;4985985;28;20042;-66
2022/11/23 09:51:11;;;;;;;15.90;2.95;;;;;;;9.14;100.00;99612.00;4985971;28;20080;-64
2022/11/23 09:53:43;;;;;;;19.70;3.45;;;;;;;9.09;100.00;99615.69;4985717;28;20086;-64
2022/11/23 09:56:16;;;;;;;18.30;3.08;;;;;;;9.01;100.00;99609.97;4987625;28;20093;-66
2022/11/23 09:58:42;;;;;;;11.32;2.30;;;;;;;9.01;100.00;99612.59;4985056;28;20312;-63
2022/11/23 10:01:11;;;;;;;24.58;3.47;;;;;;;9.06;100.00;99621.09;4987525;28;20392;-64
2022/11/23 10:03:38;;;;;;;15.68;3.05;;;;;;;9.15;100.00;99626.84;4987835;28;20065;-66
2022/11/23 10:06:16;;;;;;;18.52;2.85;;;;;;;9.13;100.00;99631.31;4987733;28;20049;-65
2022/11/23 10:09:18;;;;;;;20.92;4.07;;;;;;;9.10;100.00;99633.16;5002287;28;20378;-65
2022/11/23 10:12:01;;;;;;;19.30;3.20;;;;;;;9.03;100.00;99634.38;5009220;28;20373;-66
2022/11/23 10:14:38;;;;;;;17.73;2.30;;;;;;;9.07;100.00;99628.09;5001472;28;20030;-62
2022/11/23 10:17:28;;;;;;;21.30;3.05;;;;;;;9.03;100.00;99639.63;4987420;28;20028;-67
2022/11/23 10:20:06;;;;;;;15.07;2.50;;;;;;;9.01;100.00;99636.25;4968229;28;20093;-65
2022/11/23 10:22:55;;;;;;;16.25;4.80;;;;;;;9.37;100.00;99628.44;4982474;28;20463;-59
2022/11/23 10:25:21;;;;;;;18.90;3.85;;;;;;;9.51;100.00;99643.56;4969328;28;20050;-65
2022/11/23 10:27:49;;;;;;;21.58;3.15;;;;;;;9.54;100.00;99636.34;4984323;28;20038;-66
2022/11/23 10:30:16;;;;;;;16.70;3.38;;;;;;;9.47;100.00;99634.97;4976916;28;20408;-66
2022/11/23 10:32:47;;;;;;;14.52;3.20;;;;;;;9.49;100.00;99619.97;4983405;28;20065;-68
2022/11/23 10:35:32;;;;;;;15.30;3.45;;;;;;;9.50;100.00;99629.56;4987353;28;20026;-67
2022/11/23 10:38:15;;;;;;;18.17;2.85;;;;;;;9.42;100.00;99642.25;4987391;28;20091;-67
2022/11/23 10:41:04;;;;;;;9.48;2.45;;;;;;;9.39;100.00;99640.59;4987507;28;20062;-68
2022/11/23 10:44:02;;;;;;;12.40;2.92;;;;;;;9.22;100.00;99636.16;4987199;28;20468;-66
2022/11/23 10:46:31;;;;;;;20.77;3.33;;;;;;;9.25;100.00;99641.25;4979875;28;20448;-66
2022/11/23 10:49:21;;;;;;;14.32;3.10;;;;;;;9.31;100.00;99637.47;4986316;28;20030;-59
2022/11/23 10:51:50;;;;;;;14.30;2.60;;;;;;;9.37;100.00;99644.22;4988594;28;20109;-67
2022/11/23 10:54:20;;;;;;;;;;;;;;;9.26;100.00;99640.34;4987402;28;20118;-67
2022/11/23 10:56:50;;;;;;;23.40;4.70;;;;;;;9.45;100.00;99631.56;4984122;28;19991;-63
2022/11/23 10:59:31;;;;;;;15.57;3.15;;;;;;;9.40;100.00;99620.41;4986026;28;20520;-68
2022/11/23 11:02:16;;;;;;;10.52;3.00;;;;;;;9.53;100.00;99624.16;4985991;28;20384;-65
2022/11/23 11:04:42;;;;;;;15.27;2.70;;;;;;;9.37;100.00;99600.38;4988233;28;20084;-64
2022/11/23 11:07:27;;;;;;;14.30;2.83;;;;;;;9.29;100.00;99600.75;4970903;28;20524;-68
2022/11/23 11:09:55;;;;;;;15.60;3.13;;;;;;;9.33;100.00;99590.97;4987200;28;20441;-63
2022/11/23 11:12:20;;;;;;;17.27;3.42;;;;;;;9.54;100.00;99582.94;4986419;28;20031;-66
2022/11/23 11:15:08;;;;;;;17.38;3.22;;;;;;;9.69;100.00;99583.94;4985459;28;20089;-65
2022/11/23 11:17:34;;;;;;;11.05;2.58;;;;;;;9.39;100.00;99571.41;4986224;28;20520;-68
2022/11/23 11:20:08;;;;;;;9.40;2.20;;;;;;;9.54;100.00;99570.63;4986956;28;20030;-65
2022/11/23 11:22:34;;;;;;;12.18;2.63;;;;;;;9.60;100.00;99564.19;4985655;28;20058;-69
2022/11/23 11:25:02;;;;;;;12.10;2.97;;;;;;;9.45;100.00;99558.78;4985119;28;20022;-67